sensor_id;sensor_type;location;lat;lon;timestamp;temperature;humidity
7720;DHT22;3902;49.474;8.616;2022-10-24T00:00:17;17.20;99.90
7720;DHT22;3902;49.474;8.616;2022-10-24T00:02:42;17.20;99.90
7720;DHT22;3902;49.474;8.616;2022-10-24T00:05:10;17.20;99.90
7720;DHT22;3902;49.474;8.616;2022-10-24T00:07:36;17.20;99.90
7720;DHT22;3902;49.474;8.616;2022-10-24T00:10:01;17.20;99.90
7720;DHT22;3902;49.474;8.616;2022-10-24T00:12:27;17.20;99.90
7720;DHT22;3902;49.474;8.616;2022-10-24T00:14:52;17.20;99.90
7720;DHT22;3902;49.474;8.616;2022-10-24T00:17:18;17.10;99.90
7720;DHT22;3902;49.474;8.616;2022-10-24T00:19:43;17.10;99.90
7720;DHT22;3902;49.474;8.616;2022-10-24T00:22:09;17.10;99.90
7720;DHT22;3902;49.474;8.616;2022-10-24T00:24:34;17.10;99.90
7720;DHT22;3902;49.474;8.616;2022-10-24T00:27:00;17.10;99.90
7720;DHT22;3902;49.474;8.616;2022-10-24T00:29:25;17.20;99.90
7720;DHT22;3902;49.474;8.616;2022-10-24T00:31:51;17.10;99.90
7720;DHT22;3902;49.474;8.616;2022-10-24T00:34:16;17.10;99.90
7720;DHT22;3902;49.474;8.616;2022-10-24T00:36:42;17.10;99.90
7720;DHT22;3902;49.474;8.616;2022-10-24T00:39:07;17.10;99.90
7720;DHT22;3902;49.474;8.616;2022-10-24T00:41:35;17.10;99.90
7720;DHT22;3902;49.474;8.616;2022-10-24T00:44:22;17.10;99.90
7720;DHT22;3902;49.474;8.616;2022-10-24T00:47:06;17.10;99.90
7720;DHT22;3902;49.474;8.616;2022-10-24T00:49:57;17.10;99.90
7720;DHT22;3902;49.474;8.616;2022-10-24T00:52:30;17.10;99.90
7720;DHT22;3902;49.474;8.616;2022-10-24T00:54:58;17.10;99.90
7720;DHT22;3902;49.474;8.616;2022-10-24T00:57:28;17.10;99.90
7720;DHT22;3902;49.474;8.616;2022-10-24T00:59:59;17.10;99.90
7720;DHT22;3902;49.474;8.616;2022-10-24T01:02:26;17.10;99.90
7720;DHT22;3902;49.474;8.616;2022-10-24T01:04:52;17.10;99.90
7720;DHT22;3902;49.474;8.616;2022-10-24T01:10:29;17.10;99.90
7720;DHT22;3902;49.474;8.616;2022-10-24T01:18:27;17.00;99.90
7720;DHT22;3902;49.474;8.616;2022-10-24T01:23:44;17.00;99.90
7720;DHT22;3902;49.474;8.616;2022-10-24T01:32:06;17.00;99.90
7720;DHT22;3902;49.474;8.616;2022-10-24T01:37:37;17.00;99.90
7720;DHT22;3902;49.474;8.616;2022-10-24T01:40:32;17.00;99.90
7720;DHT22;3902;49.474;8.616;2022-10-24T01:43:02;17.00;99.90
7720;DHT22;3902;49.474;8.616;2022-10-24T01:45:33;17.00;99.90
7720;DHT22;3902;49.474;8.616;2022-10-24T01:48:02;17.00;99.90
7720;DHT22;3902;49.474;8.616;2022-10-24T01:50:31;17.00;99.90
7720;DHT22;3902;49.474;8.616;2022-10-24T01:52:58;17.00;99.90
7720;DHT22;3902;49.474;8.616;2022-10-24T01:55:23;17.00;99.90
7720;DHT22;3902;49.474;8.616;2022-10-24T01:57:49;16.90;99.90
7720;DHT22;3902;49.474;8.616;2022-10-24T02:00:18;16.90;99.90
7720;DHT22;3902;49.474;8.616;2022-10-24T02:02:48;16.90;99.90
7720;DHT22;3902;49.474;8.616;2022-10-24T02:05:20;16.90;99.90
7720;DHT22;3902;49.474;8.616;2022-10-24T02:07:50;16.90;99.90
7720;DHT22;3902;49.474;8.616;2022-10-24T02:10:30;16.90;99.90
7720;DHT22;3902;49.474;8.616;2022-10-24T02:13:04;16.90;99.90
7720;DHT22;3902;49.474;8.616;2022-10-24T02:15:39;16.90;99.90
7720;DHT22;3902;49.474;8.616;2022-10-24T02:18:06;16.90;99.90
7720;DHT22;3902;49.474;8.616;2022-10-24T02:20:36;16.90;99.90
7720;DHT22;3902;49.474;8.616;2022-10-24T02:25:50;16.90;99.90
7720;DHT22;3902;49.474;8.616;2022-10-24T02:28:21;16.80;99.90
7720;DHT22;3902;49.474;8.616;2022-10-24T02:30:55;16.90;99.90
7720;DHT22;3902;49.474;8.616;2022-10-24T02:33:22;16.90;99.90
7720;DHT22;3902;49.474;8.616;2022-10-24T02:35:50;16.80;99.90
7720;DHT22;3902;49.474;8.616;2022-10-24T02:38:28;16.80;99.90
7720;DHT22;3902;49.474;8.616;2022-10-24T02:40:56;16.80;99.90
7720;DHT22;3902;49.474;8.616;2022-10-24T02:43:23;16.80;99.90
7720;DHT22;3902;49.474;8.616;2022-10-24T02:45:50;16.80;99.90
7720;DHT22;3902;49.474;8.616;2022-10-24T02:48:21;16.80;99.90
7720;DHT22;3902;49.474;8.616;2022-10-24T02:50:47;16.80;99.90
7720;DHT22;3902;49.474;8.616;2022-10-24T02:53:15;16.80;99.90
7720;DHT22;3902;49.474;8.616;2022-10-24T02:55:43;16.80;99.90
7720;DHT22;3902;49.474;8.616;2022-10-24T02:58:08;16.80;99.90
7720;DHT22;3902;49.474;8.616;2022-10-24T03:00:34;16.80;99.90
7720;DHT22;3902;49.474;8.616;2022-10-24T03:03:00;16.70;99.90
7720;DHT22;3902;49.474;8.616;2022-10-24T03:05:25;16.80;99.90
7720;DHT22;3902;49.474;8.616;2022-10-24T03:07:51;16.70;99.90
7720;DHT22;3902;49.474;8.616;2022-10-24T03:10:16;16.70;99.90
7720;DHT22;3902;49.474;8.616;2022-10-24T03:12:42;16.70;99.90
7720;DHT22;3902;49.474;8.616;2022-10-24T03:15:08;16.70;99.90
7720;DHT22;3902;49.474;8.616;2022-10-24T03:17:33;16.70;99.90
7720;DHT22;3902;49.474;8.616;2022-10-24T03:19:59;16.70;99.90
7720;DHT22;3902;49.474;8.616;2022-10-24T03:22:24;16.70;99.90
7720;DHT22;3902;49.474;8.616;2022-10-24T03:24:50;16.70;99.90
7720;DHT22;3902;49.474;8.616;2022-10-24T03:27:15;16.60;99.90
7720;DHT22;3902;49.474;8.616;2022-10-24T03:29:41;16.60;99.90
7720;DHT22;3902;49.474;8.616;2022-10-24T03:32:06;16.60;99.90
7720;DHT22;3902;49.474;8.616;2022-10-24T03:34:32;16.60;99.90
7720;DHT22;3902;49.474;8.616;2022-10-24T03:36:57;16.60;99.90
7720;DHT22;3902;49.474;8.616;2022-10-24T03:39:23;16.60;99.90
7720;DHT22;3902;49.474;8.616;2022-10-24T03:41:49;16.70;99.90
7720;DHT22;3902;49.474;8.616;2022-10-24T03:44:14;16.70;99.90
7720;DHT22;3902;49.474;8.616;2022-10-24T03:46:40;16.60;99.90
7720;DHT22;3902;49.474;8.616;2022-10-24T03:49:05;16.70;99.90
7720;DHT22;3902;49.474;8.616;2022-10-24T03:51:31;16.70;99.90
7720;DHT22;3902;49.474;8.616;2022-10-24T03:53:56;16.70;99.90
7720;DHT22;3902;49.474;8.616;2022-10-24T03:56:22;16.70;99.90
7720;DHT22;3902;49.474;8.616;2022-10-24T03:58:47;16.70;99.90
7720;DHT22;3902;49.474;8.616;2022-10-24T04:01:13;16.70;99.90
7720;DHT22;3902;49.474;8.616;2022-10-24T04:03:43;16.70;99.90
7720;DHT22;3902;49.474;8.616;2022-10-24T04:06:09;16.80;99.90
7720;DHT22;3902;49.474;8.616;2022-10-24T04:08:34;16.80;99.90
7720;DHT22;3902;49.474;8.616;2022-10-24T04:11:00;16.80;99.90
7720;DHT22;3902;49.474;8.616;2022-10-24T04:13:25;16.80;99.90
7720;DHT22;3902;49.474;8.616;2022-10-24T04:15:51;16.80;99.90
7720;DHT22;3902;49.474;8.616;2022-10-24T04:18:17;16.80;99.90
7720;DHT22;3902;49.474;8.616;2022-10-24T04:20:42;16.80;99.90
7720;DHT22;3902;49.474;8.616;2022-10-24T04:23:08;16.80;99.90
7720;DHT22;3902;49.474;8.616;2022-10-24T04:25:33;16.80;99.90
7720;DHT22;3902;49.474;8.616;2022-10-24T04:27:59;16.80;99.90
7720;DHT22;3902;49.474;8.616;2022-10-24T04:30:25;16.80;99.90
7720;DHT22;3902;49.474;8.616;2022-10-24T04:32:50;16.80;99.90
7720;DHT22;3902;49.474;8.616;2022-10-24T04:35:16;16.80;99.90
7720;DHT22;3902;49.474;8.616;2022-10-24T04:37:41;16.80;99.90
7720;DHT22;3902;49.474;8.616;2022-10-24T04:40:07;16.80;99.90
7720;DHT22;3902;49.474;8.616;2022-10-24T04:42:33;16.80;99.90
7720;DHT22;3902;49.474;8.616;2022-10-24T04:44:59;16.80;99.90
7720;DHT22;3902;49.474;8.616;2022-10-24T04:47:24;16.80;99.90
7720;DHT22;3902;49.474;8.616;2022-10-24T04:49:50;16.80;99.90
7720;DHT22;3902;49.474;8.616;2022-10-24T04:52:15;16.80;99.90
7720;DHT22;3902;49.474;8.616;2022-10-24T04:54:41;16.80;99.90
7720;DHT22;3902;49.474;8.616;2022-10-24T04:57:06;16.80;99.90
7720;DHT22;3902;49.474;8.616;2022-10-24T04:59:32;16.80;99.90
7720;DHT22;3902;49.474;8.616;2022-10-24T05:01:57;16.80;99.90
7720;DHT22;3902;49.474;8.616;2022-10-24T05:04:23;16.80;99.90
7720;DHT22;3902;49.474;8.616;2022-10-24T05:06:48;16.80;99.90
7720;DHT22;3902;49.474;8.616;2022-10-24T05:09:14;16.80;99.90
7720;DHT22;3902;49.474;8.616;2022-10-24T05:11:40;16.80;99.90
7720;DHT22;3902;49.474;8.616;2022-10-24T05:14:06;16.80;99.90
7720;DHT22;3902;49.474;8.616;2022-10-24T05:16:31;16.80;99.90
7720;DHT22;3902;49.474;8.616;2022-10-24T05:18:57;16.80;99.90
7720;DHT22;3902;49.474;8.616;2022-10-24T05:21:22;16.80;99.90
7720;DHT22;3902;49.474;8.616;2022-10-24T05:23:48;16.80;99.90
7720;DHT22;3902;49.474;8.616;2022-10-24T05:26:13;16.90;99.90
7720;DHT22;3902;49.474;8.616;2022-10-24T05:28:39;16.80;99.90
7720;DHT22;3902;49.474;8.616;2022-10-24T05:31:04;16.90;99.90
7720;DHT22;3902;49.474;8.616;2022-10-24T05:33:30;16.90;99.90
7720;DHT22;3902;49.474;8.616;2022-10-24T05:35:56;16.90;99.90
7720;DHT22;3902;49.474;8.616;2022-10-24T05:38:21;16.90;99.90
7720;DHT22;3902;49.474;8.616;2022-10-24T05:40:47;16.90;99.90
7720;DHT22;3902;49.474;8.616;2022-10-24T05:43:14;16.90;99.90
7720;DHT22;3902;49.474;8.616;2022-10-24T05:45:40;16.90;99.90
7720;DHT22;3902;49.474;8.616;2022-10-24T05:48:07;16.90;99.90
7720;DHT22;3902;49.474;8.616;2022-10-24T05:50:33;16.90;99.90
7720;DHT22;3902;49.474;8.616;2022-10-24T05:52:59;16.90;99.90
7720;DHT22;3902;49.474;8.616;2022-10-24T05:55:25;16.90;99.90
7720;DHT22;3902;49.474;8.616;2022-10-24T05:57:50;16.90;99.90
7720;DHT22;3902;49.474;8.616;2022-10-24T06:00:16;16.90;99.90
7720;DHT22;3902;49.474;8.616;2022-10-24T06:02:42;16.90;99.90
7720;DHT22;3902;49.474;8.616;2022-10-24T06:05:08;17.00;99.90
7720;DHT22;3902;49.474;8.616;2022-10-24T06:07:34;17.00;99.90
7720;DHT22;3902;49.474;8.616;2022-10-24T06:10:01;17.00;99.90
7720;DHT22;3902;49.474;8.616;2022-10-24T06:12:27;17.00;99.90
7720;DHT22;3902;49.474;8.616;2022-10-24T06:14:56;17.00;99.90
7720;DHT22;3902;49.474;8.616;2022-10-24T06:17:23;17.00;99.90
7720;DHT22;3902;49.474;8.616;2022-10-24T06:19:48;16.90;99.90
7720;DHT22;3902;49.474;8.616;2022-10-24T06:22:16;16.90;99.90
7720;DHT22;3902;49.474;8.616;2022-10-24T06:24:41;17.00;99.90
7720;DHT22;3902;49.474;8.616;2022-10-24T06:27:07;16.90;99.90
7720;DHT22;3902;49.474;8.616;2022-10-24T06:29:33;16.90;99.90
7720;DHT22;3902;49.474;8.616;2022-10-24T06:31:59;16.90;99.90
7720;DHT22;3902;49.474;8.616;2022-10-24T06:34:24;16.90;99.90
7720;DHT22;3902;49.474;8.616;2022-10-24T06:36:50;16.90;99.90
7720;DHT22;3902;49.474;8.616;2022-10-24T06:39:15;16.90;99.90
7720;DHT22;3902;49.474;8.616;2022-10-24T06:41:41;16.90;99.90
7720;DHT22;3902;49.474;8.616;2022-10-24T06:44:07;16.90;99.90
7720;DHT22;3902;49.474;8.616;2022-10-24T06:46:32;16.90;99.90
7720;DHT22;3902;49.474;8.616;2022-10-24T06:48:58;16.90;99.90
7720;DHT22;3902;49.474;8.616;2022-10-24T06:51:24;16.90;99.90
7720;DHT22;3902;49.474;8.616;2022-10-24T06:53:49;16.90;99.90
7720;DHT22;3902;49.474;8.616;2022-10-24T06:56:15;16.90;99.90
7720;DHT22;3902;49.474;8.616;2022-10-24T06:58:43;16.90;99.90
7720;DHT22;3902;49.474;8.616;2022-10-24T07:01:14;16.90;99.90
7720;DHT22;3902;49.474;8.616;2022-10-24T07:03:40;16.90;99.90
7720;DHT22;3902;49.474;8.616;2022-10-24T07:06:13;16.90;99.90
7720;DHT22;3902;49.474;8.616;2022-10-24T07:08:39;17.00;99.90
7720;DHT22;3902;49.474;8.616;2022-10-24T07:11:05;16.90;99.90
7720;DHT22;3902;49.474;8.616;2022-10-24T07:13:30;16.90;99.90
7720;DHT22;3902;49.474;8.616;2022-10-24T07:15:56;16.90;99.90
7720;DHT22;3902;49.474;8.616;2022-10-24T07:18:21;16.90;99.90
7720;DHT22;3902;49.474;8.616;2022-10-24T07:20:47;16.90;99.90
7720;DHT22;3902;49.474;8.616;2022-10-24T07:23:13;16.90;99.90
7720;DHT22;3902;49.474;8.616;2022-10-24T07:25:39;16.90;99.90
7720;DHT22;3902;49.474;8.616;2022-10-24T07:28:06;16.90;99.90
7720;DHT22;3902;49.474;8.616;2022-10-24T07:30:32;16.90;99.90
7720;DHT22;3902;49.474;8.616;2022-10-24T07:32:58;16.90;99.90
7720;DHT22;3902;49.474;8.616;2022-10-24T07:35:24;17.00;99.90
7720;DHT22;3902;49.474;8.616;2022-10-24T07:37:50;16.90;99.90
7720;DHT22;3902;49.474;8.616;2022-10-24T07:40:16;16.90;99.90
7720;DHT22;3902;49.474;8.616;2022-10-24T07:42:42;16.90;99.90
7720;DHT22;3902;49.474;8.616;2022-10-24T07:45:08;17.00;99.90
7720;DHT22;3902;49.474;8.616;2022-10-24T07:47:34;17.00;99.90
7720;DHT22;3902;49.474;8.616;2022-10-24T07:49:59;17.00;99.90
7720;DHT22;3902;49.474;8.616;2022-10-24T07:52:25;17.00;99.90
7720;DHT22;3902;49.474;8.616;2022-10-24T07:54:54;17.00;99.90
7720;DHT22;3902;49.474;8.616;2022-10-24T07:57:20;17.00;99.90
7720;DHT22;3902;49.474;8.616;2022-10-24T07:59:46;17.10;99.90
7720;DHT22;3902;49.474;8.616;2022-10-24T08:02:13;17.10;99.90
7720;DHT22;3902;49.474;8.616;2022-10-24T08:04:39;17.10;99.90
7720;DHT22;3902;49.474;8.616;2022-10-24T08:07:05;17.10;99.90
7720;DHT22;3902;49.474;8.616;2022-10-24T08:09:38;17.20;99.90
7720;DHT22;3902;49.474;8.616;2022-10-24T08:12:04;17.20;99.90
7720;DHT22;3902;49.474;8.616;2022-10-24T08:14:29;17.20;99.90
7720;DHT22;3902;49.474;8.616;2022-10-24T08:16:54;17.20;99.90
7720;DHT22;3902;49.474;8.616;2022-10-24T08:19:20;17.20;99.90
7720;DHT22;3902;49.474;8.616;2022-10-24T08:21:45;17.30;99.90
7720;DHT22;3902;49.474;8.616;2022-10-24T08:24:11;17.30;99.90
7720;DHT22;3902;49.474;8.616;2022-10-24T08:26:37;17.30;99.90
7720;DHT22;3902;49.474;8.616;2022-10-24T08:29:05;17.30;99.90
7720;DHT22;3902;49.474;8.616;2022-10-24T08:31:36;17.40;99.90
7720;DHT22;3902;49.474;8.616;2022-10-24T08:34:02;17.40;99.90
7720;DHT22;3902;49.474;8.616;2022-10-24T08:36:32;17.40;99.90
7720;DHT22;3902;49.474;8.616;2022-10-24T08:38:58;17.40;99.90
7720;DHT22;3902;49.474;8.616;2022-10-24T08:41:38;17.40;99.90
7720;DHT22;3902;49.474;8.616;2022-10-24T08:49:38;17.40;99.90
7720;DHT22;3902;49.474;8.616;2022-10-24T08:52:22;17.40;99.90
7720;DHT22;3902;49.474;8.616;2022-10-24T08:54:52;17.40;99.90
7720;DHT22;3902;49.474;8.616;2022-10-24T08:57:25;17.50;99.90
7720;DHT22;3902;49.474;8.616;2022-10-24T08:59:53;17.50;99.90
7720;DHT22;3902;49.474;8.616;2022-10-24T09:02:23;17.50;99.90
7720;DHT22;3902;49.474;8.616;2022-10-24T09:07:22;17.60;99.90
7720;DHT22;3902;49.474;8.616;2022-10-24T09:09:51;17.60;99.90
7720;DHT22;3902;49.474;8.616;2022-10-24T09:12:20;17.60;99.90
7720;DHT22;3902;49.474;8.616;2022-10-24T09:14:55;17.70;99.90
7720;DHT22;3902;49.474;8.616;2022-10-24T09:17:31;17.70;99.90
7720;DHT22;3902;49.474;8.616;2022-10-24T09:22:29;17.90;99.90
7720;DHT22;3902;49.474;8.616;2022-10-24T09:25:07;18.00;99.90
7720;DHT22;3902;49.474;8.616;2022-10-24T09:27:38;18.00;99.90
7720;DHT22;3902;49.474;8.616;2022-10-24T09:30:06;18.10;99.90
7720;DHT22;3902;49.474;8.616;2022-10-24T09:32:32;18.10;99.90
7720;DHT22;3902;49.474;8.616;2022-10-24T09:35:07;18.10;99.90
7720;DHT22;3902;49.474;8.616;2022-10-24T09:37:40;18.10;99.90
7720;DHT22;3902;49.474;8.616;2022-10-24T09:43:05;18.20;99.90
7720;DHT22;3902;49.474;8.616;2022-10-24T09:45:41;18.20;99.90
7720;DHT22;3902;49.474;8.616;2022-10-24T09:50:54;18.30;99.90
7720;DHT22;3902;49.474;8.616;2022-10-24T09:53:29;18.40;99.90
7720;DHT22;3902;49.474;8.616;2022-10-24T09:56:05;18.40;99.90
7720;DHT22;3902;49.474;8.616;2022-10-24T09:58:31;18.40;99.90
7720;DHT22;3902;49.474;8.616;2022-10-24T10:01:02;18.40;99.90
7720;DHT22;3902;49.474;8.616;2022-10-24T10:03:29;18.50;99.90
7720;DHT22;3902;49.474;8.616;2022-10-24T10:05:56;18.50;99.90
7720;DHT22;3902;49.474;8.616;2022-10-24T10:08:32;18.40;99.90
7720;DHT22;3902;49.474;8.616;2022-10-24T10:11:10;18.40;99.90
7720;DHT22;3902;49.474;8.616;2022-10-24T10:13:44;18.50;99.90
7720;DHT22;3902;49.474;8.616;2022-10-24T10:16:32;18.50;99.90
7720;DHT22;3902;49.474;8.616;2022-10-24T10:19:13;18.60;99.90
7720;DHT22;3902;49.474;8.616;2022-10-24T10:22:28;18.50;99.90
7720;DHT22;3902;49.474;8.616;2022-10-24T10:24:46;18.50;99.90
7720;DHT22;3902;49.474;8.616;2022-10-24T10:27:33;18.50;99.90
7720;DHT22;3902;49.474;8.616;2022-10-24T10:32:56;18.50;99.90
7720;DHT22;3902;49.474;8.616;2022-10-24T10:41:36;18.70;99.90
7720;DHT22;3902;49.474;8.616;2022-10-24T10:44:29;18.70;99.90
7720;DHT22;3902;49.474;8.616;2022-10-24T11:04:19;18.90;99.90
7720;DHT22;3902;49.474;8.616;2022-10-24T11:07:22;19.20;99.90
7720;DHT22;3902;49.474;8.616;2022-10-24T11:09:53;19.40;99.90
7720;DHT22;3902;49.474;8.616;2022-10-24T11:12:41;19.80;99.90
7720;DHT22;3902;49.474;8.616;2022-10-24T11:15:19;20.10;99.90
7720;DHT22;3902;49.474;8.616;2022-10-24T11:17:58;20.20;99.90
7720;DHT22;3902;49.474;8.616;2022-10-24T11:20:50;20.20;99.90
7720;DHT22;3902;49.474;8.616;2022-10-24T11:23:43;20.20;99.90
7720;DHT22;3902;49.474;8.616;2022-10-24T11:26:22;20.10;99.90
7720;DHT22;3902;49.474;8.616;2022-10-24T11:28:52;20.00;99.90
7720;DHT22;3902;49.474;8.616;2022-10-24T11:39:36;20.10;99.90
7720;DHT22;3902;49.474;8.616;2022-10-24T11:45:03;20.70;99.90
7720;DHT22;3902;49.474;8.616;2022-10-24T11:47:45;21.10;99.90
7720;DHT22;3902;49.474;8.616;2022-10-24T11:52:57;22.00;99.90
7720;DHT22;3902;49.474;8.616;2022-10-24T11:55:31;22.40;99.90
7720;DHT22;3902;49.474;8.616;2022-10-24T11:58:07;22.90;99.90
7720;DHT22;3902;49.474;8.616;2022-10-24T12:11:34;24.10;99.90
7720;DHT22;3902;49.474;8.616;2022-10-24T12:14:30;24.30;99.90
7720;DHT22;3902;49.474;8.616;2022-10-24T12:17:17;24.70;99.90
7720;DHT22;3902;49.474;8.616;2022-10-24T12:19:49;25.30;99.90
7720;DHT22;3902;49.474;8.616;2022-10-24T12:22:23;25.60;99.90
7720;DHT22;3902;49.474;8.616;2022-10-24T12:27:58;25.50;99.90
7720;DHT22;3902;49.474;8.616;2022-10-24T12:30:27;25.90;99.90
7720;DHT22;3902;49.474;8.616;2022-10-24T12:33:22;26.20;99.90
7720;DHT22;3902;49.474;8.616;2022-10-24T12:35:51;26.60;99.90
7720;DHT22;3902;49.474;8.616;2022-10-24T12:41:04;26.50;99.90
7720;DHT22;3902;49.474;8.616;2022-10-24T12:43:42;26.70;99.90
7720;DHT22;3902;49.474;8.616;2022-10-24T12:48:41;26.20;99.90
7720;DHT22;3902;49.474;8.616;2022-10-24T12:51:30;26.10;99.90
7720;DHT22;3902;49.474;8.616;2022-10-24T12:54:03;25.60;99.90
7720;DHT22;3902;49.474;8.616;2022-10-24T12:56:31;25.10;99.90
7720;DHT22;3902;49.474;8.616;2022-10-24T12:59:02;24.10;99.90
7720;DHT22;3902;49.474;8.616;2022-10-24T13:01:32;23.90;99.90
7720;DHT22;3902;49.474;8.616;2022-10-24T13:04:13;23.70;99.90
7720;DHT22;3902;49.474;8.616;2022-10-24T13:12:08;23.60;99.90
7720;DHT22;3902;49.474;8.616;2022-10-24T13:14:44;24.10;99.90
7720;DHT22;3902;49.474;8.616;2022-10-24T13:19:45;25.20;99.90
7720;DHT22;3902;49.474;8.616;2022-10-24T13:22:27;25.60;99.90
7720;DHT22;3902;49.474;8.616;2022-10-24T13:24:54;25.80;99.90
7720;DHT22;3902;49.474;8.616;2022-10-24T13:27:26;26.00;99.90
7720;DHT22;3902;49.474;8.616;2022-10-24T13:37:41;25.00;99.90
7720;DHT22;3902;49.474;8.616;2022-10-24T13:40:33;24.60;99.90
7720;DHT22;3902;49.474;8.616;2022-10-24T13:43:02;24.20;99.90
7720;DHT22;3902;49.474;8.616;2022-10-24T13:48:06;23.40;99.90
7720;DHT22;3902;49.474;8.616;2022-10-24T13:50:37;23.30;99.90
7720;DHT22;3902;49.474;8.616;2022-10-24T13:53:23;22.90;99.90
7720;DHT22;3902;49.474;8.616;2022-10-24T13:55:49;22.80;99.90
7720;DHT22;3902;49.474;8.616;2022-10-24T13:58:23;22.60;99.90
7720;DHT22;3902;49.474;8.616;2022-10-24T14:01:04;22.50;99.90
7720;DHT22;3902;49.474;8.616;2022-10-24T14:03:32;22.50;99.90
7720;DHT22;3902;49.474;8.616;2022-10-24T14:06:03;22.40;99.90
7720;DHT22;3902;49.474;8.616;2022-10-24T14:08:41;22.60;99.90
7720;DHT22;3902;49.474;8.616;2022-10-24T14:11:15;22.80;99.90
7720;DHT22;3902;49.474;8.616;2022-10-24T14:13:48;22.90;99.90
7720;DHT22;3902;49.474;8.616;2022-10-24T14:16:14;22.90;99.90
7720;DHT22;3902;49.474;8.616;2022-10-24T14:18:43;22.90;99.90
7720;DHT22;3902;49.474;8.616;2022-10-24T14:21:20;23.00;99.90
7720;DHT22;3902;49.474;8.616;2022-10-24T14:23:57;22.90;99.90
7720;DHT22;3902;49.474;8.616;2022-10-24T14:26:23;22.50;99.90
7720;DHT22;3902;49.474;8.616;2022-10-24T14:28:52;22.60;99.90
7720;DHT22;3902;49.474;8.616;2022-10-24T14:31:22;22.50;99.90
7720;DHT22;3902;49.474;8.616;2022-10-24T14:33:50;22.60;99.90
7720;DHT22;3902;49.474;8.616;2022-10-24T14:36:17;22.50;99.90
7720;DHT22;3902;49.474;8.616;2022-10-24T14:38:47;22.60;99.90
7720;DHT22;3902;49.474;8.616;2022-10-24T14:41:24;22.60;99.90
7720;DHT22;3902;49.474;8.616;2022-10-24T14:43:50;22.80;99.90
7720;DHT22;3902;49.474;8.616;2022-10-24T14:48:44;22.50;99.90
7720;DHT22;3902;49.474;8.616;2022-10-24T14:51:27;22.50;99.90
7720;DHT22;3902;49.474;8.616;2022-10-24T14:53:55;22.20;99.90
7720;DHT22;3902;49.474;8.616;2022-10-24T14:56:30;22.00;99.90
7720;DHT22;3902;49.474;8.616;2022-10-24T14:58:57;21.80;99.90
7720;DHT22;3902;49.474;8.616;2022-10-24T15:01:24;21.80;99.90
7720;DHT22;3902;49.474;8.616;2022-10-24T15:06:42;21.50;99.90
7720;DHT22;3902;49.474;8.616;2022-10-24T15:14:35;21.30;99.90
7720;DHT22;3902;49.474;8.616;2022-10-24T15:17:25;21.30;99.90
7720;DHT22;3902;49.474;8.616;2022-10-24T15:19:57;21.30;99.90
7720;DHT22;3902;49.474;8.616;2022-10-24T15:22:26;21.30;99.90
7720;DHT22;3902;49.474;8.616;2022-10-24T15:24:54;21.30;99.90
7720;DHT22;3902;49.474;8.616;2022-10-24T15:27:30;21.20;99.90
7720;DHT22;3902;49.474;8.616;2022-10-24T15:29:55;21.20;99.90
7720;DHT22;3902;49.474;8.616;2022-10-24T15:32:22;21.10;99.90
7720;DHT22;3902;49.474;8.616;2022-10-24T15:34:51;21.10;99.90
7720;DHT22;3902;49.474;8.616;2022-10-24T15:37:19;21.00;99.90
7720;DHT22;3902;49.474;8.616;2022-10-24T15:39:45;20.90;99.90
7720;DHT22;3902;49.474;8.616;2022-10-24T15:42:10;20.80;99.90
7720;DHT22;3902;49.474;8.616;2022-10-24T15:44:37;20.70;99.90
7720;DHT22;3902;49.474;8.616;2022-10-24T15:47:03;20.70;99.90
7720;DHT22;3902;49.474;8.616;2022-10-24T15:49:28;20.50;99.90
7720;DHT22;3902;49.474;8.616;2022-10-24T15:51:56;20.40;99.90
7720;DHT22;3902;49.474;8.616;2022-10-24T15:54:23;20.30;99.90
7720;DHT22;3902;49.474;8.616;2022-10-24T15:56:52;20.30;99.90
7720;DHT22;3902;49.474;8.616;2022-10-24T15:59:18;20.20;99.90
7720;DHT22;3902;49.474;8.616;2022-10-24T16:01:48;20.20;99.90
7720;DHT22;3902;49.474;8.616;2022-10-24T16:04:15;20.10;99.90
7720;DHT22;3902;49.474;8.616;2022-10-24T16:06:41;20.00;99.90
7720;DHT22;3902;49.474;8.616;2022-10-24T16:09:13;20.00;99.90
7720;DHT22;3902;49.474;8.616;2022-10-24T16:11:39;20.00;99.90
7720;DHT22;3902;49.474;8.616;2022-10-24T16:14:04;19.90;99.90
7720;DHT22;3902;49.474;8.616;2022-10-24T16:16:30;19.90;99.90
7720;DHT22;3902;49.474;8.616;2022-10-24T16:18:55;19.80;99.90
7720;DHT22;3902;49.474;8.616;2022-10-24T16:21:21;19.90;99.90
7720;DHT22;3902;49.474;8.616;2022-10-24T16:23:47;19.80;99.90
7720;DHT22;3902;49.474;8.616;2022-10-24T16:26:13;19.80;99.90
7720;DHT22;3902;49.474;8.616;2022-10-24T16:28:39;19.80;99.90
7720;DHT22;3902;49.474;8.616;2022-10-24T16:31:05;19.80;99.90
7720;DHT22;3902;49.474;8.616;2022-10-24T16:33:31;19.70;99.90
7720;DHT22;3902;49.474;8.616;2022-10-24T16:35:57;19.60;99.90
7720;DHT22;3902;49.474;8.616;2022-10-24T16:38:22;19.60;99.90
7720;DHT22;3902;49.474;8.616;2022-10-24T16:40:48;19.50;99.90
7720;DHT22;3902;49.474;8.616;2022-10-24T16:43:16;19.50;99.90
7720;DHT22;3902;49.474;8.616;2022-10-24T16:45:42;19.50;99.90
7720;DHT22;3902;49.474;8.616;2022-10-24T16:48:09;19.50;99.90
7720;DHT22;3902;49.474;8.616;2022-10-24T16:50:35;19.40;99.90
7720;DHT22;3902;49.474;8.616;2022-10-24T16:53:02;19.50;99.90
7720;DHT22;3902;49.474;8.616;2022-10-24T16:55:29;19.40;99.90
7720;DHT22;3902;49.474;8.616;2022-10-24T16:57:55;19.40;99.90
7720;DHT22;3902;49.474;8.616;2022-10-24T17:00:21;19.40;99.90
7720;DHT22;3902;49.474;8.616;2022-10-24T17:02:49;19.40;99.90
7720;DHT22;3902;49.474;8.616;2022-10-24T17:05:19;19.40;99.90
7720;DHT22;3902;49.474;8.616;2022-10-24T17:07:45;19.40;99.90
7720;DHT22;3902;49.474;8.616;2022-10-24T17:10:11;19.40;99.90
7720;DHT22;3902;49.474;8.616;2022-10-24T17:12:38;19.40;99.90
7720;DHT22;3902;49.474;8.616;2022-10-24T17:15:05;19.30;99.90
7720;DHT22;3902;49.474;8.616;2022-10-24T17:17:30;19.30;99.90
7720;DHT22;3902;49.474;8.616;2022-10-24T17:19:58;19.30;99.90
7720;DHT22;3902;49.474;8.616;2022-10-24T17:22:24;19.20;99.90
7720;DHT22;3902;49.474;8.616;2022-10-24T17:24:49;19.20;99.90
7720;DHT22;3902;49.474;8.616;2022-10-24T17:27:15;19.10;99.90
7720;DHT22;3902;49.474;8.616;2022-10-24T17:29:41;19.20;99.90
7720;DHT22;3902;49.474;8.616;2022-10-24T17:32:12;19.20;99.90
7720;DHT22;3902;49.474;8.616;2022-10-24T17:34:38;19.20;99.90
7720;DHT22;3902;49.474;8.616;2022-10-24T17:39:42;19.10;99.90
7720;DHT22;3902;49.474;8.616;2022-10-24T17:42:11;19.00;99.90
7720;DHT22;3902;49.474;8.616;2022-10-24T17:44:37;19.00;99.90
7720;DHT22;3902;49.474;8.616;2022-10-24T17:47:04;19.00;99.90
7720;DHT22;3902;49.474;8.616;2022-10-24T17:49:30;19.00;99.90
7720;DHT22;3902;49.474;8.616;2022-10-24T17:51:55;18.90;99.90
7720;DHT22;3902;49.474;8.616;2022-10-24T17:54:21;18.90;99.90
7720;DHT22;3902;49.474;8.616;2022-10-24T17:56:46;18.90;99.90
7720;DHT22;3902;49.474;8.616;2022-10-24T17:59:13;18.80;99.90
7720;DHT22;3902;49.474;8.616;2022-10-24T18:01:39;18.70;99.90
7720;DHT22;3902;49.474;8.616;2022-10-24T18:04:06;18.70;99.90
7720;DHT22;3902;49.474;8.616;2022-10-24T18:06:32;18.70;99.90
7720;DHT22;3902;49.474;8.616;2022-10-24T18:08:58;18.60;99.90
7720;DHT22;3902;49.474;8.616;2022-10-24T18:11:24;18.60;99.90
7720;DHT22;3902;49.474;8.616;2022-10-24T18:13:49;18.60;99.90
7720;DHT22;3902;49.474;8.616;2022-10-24T18:16:16;18.60;99.90
7720;DHT22;3902;49.474;8.616;2022-10-24T18:18:43;18.60;99.90
7720;DHT22;3902;49.474;8.616;2022-10-24T18:21:12;18.50;99.90
7720;DHT22;3902;49.474;8.616;2022-10-24T18:23:38;18.40;99.90